Time;durP1;ratioP1;P1;durP2;ratioP2;P2;SDS_P1;SDS_P2;PMS_P1;PMS_P2;Temp;Humidity;BMP_temperature;BMP_pressure;BME280_temperature;BME280_humidity;BME280_pressure;Samples;Min_cycle;Max_cycle;Signal;HPM_P1;HPM_P2
2022/05/18 00:00:30;;;;;;;;;;;19.20;99.90;;;;;;4985213;28;19910;-82
2022/05/18 00:03:03;;;;;;;;;;;19.20;99.90;;;;;;4984465;28;19913;-82
2022/05/18 00:05:29;;;;;;;;;;;19.10;99.90;;;;;;4984943;28;19913;-82
2022/05/18 00:07:55;;;;;;;;;;;19.10;99.90;;;;;;4984837;28;19937;-83
2022/05/18 00:10:20;;;;;;;;;;;19.10;99.90;;;;;;4985141;28;19906;-82
2022/05/18 00:12:47;;;;;;;;;;;19.10;99.90;;;;;;4986185;28;19906;-82
2022/05/18 00:15:14;;;;;;;;;;;19.10;99.90;;;;;;4988397;28;19914;-82
2022/05/18 00:17:40;;;;;;;;;;;19.10;99.90;;;;;;4988560;28;19906;-82
2022/05/18 00:20:06;;;;;;;;;;;19.00;99.90;;;;;;4988870;28;19981;-82
2022/05/18 00:22:32;;;;;;;;;;;19.00;99.90;;;;;;4988436;28;19953;-82
2022/05/18 00:24:59;;;;;;;;;;;19.00;99.90;;;;;;4988381;28;19906;-82
2022/05/18 00:27:25;;;;;;;;;;;19.00;99.90;;;;;;4988516;28;20138;-82
2022/05/18 00:29:50;;;;;;;;;;;19.00;99.90;;;;;;4987741;28;19910;-83
2022/05/18 00:32:16;;;;;;;;;;;19.00;99.90;;;;;;4989043;28;19913;-82
2022/05/18 00:34:41;;;;;;;;;;;19.00;99.90;;;;;;4987992;28;20113;-82
2022/05/18 00:37:07;;;;;;;;;;;18.90;99.90;;;;;;4988470;28;20215;-82
2022/05/18 00:39:32;;;;;;;;;;;18.90;99.90;;;;;;4988757;28;19912;-82
2022/05/18 00:41:58;;;;;;;;;;;18.90;99.90;;;;;;4987643;28;19906;-82
2022/05/18 00:44:23;;;;;;;;;;;18.90;99.90;;;;;;4987038;28;20353;-82
2022/05/18 00:46:49;;;;;;;;;;;18.80;99.90;;;;;;4987480;28;19984;-83
2022/05/18 00:49:15;;;;;;;;;;;18.80;99.90;;;;;;4988652;28;19906;-83
2022/05/18 00:51:42;;;;;;;;;;;18.90;99.90;;;;;;4987965;28;19906;-82
2022/05/18 00:54:13;;;;;;;;;;;18.80;99.90;;;;;;4987344;28;20162;-82
2022/05/18 00:56:40;;;;;;;;;;;18.80;99.90;;;;;;4988048;28;19914;-82
2022/05/18 00:59:10;;;;;;;;;;;18.80;99.90;;;;;;4987682;28;19913;-83
2022/05/18 01:01:36;;;;;;;;;;;18.90;99.90;;;;;;4988516;28;20221;-82
2022/05/18 01:04:02;;;;;;;;;;;18.90;99.90;;;;;;4988134;28;19973;-82
2022/05/18 01:06:36;;;;;;;;;;;18.80;99.90;;;;;;4988399;28;19985;-82
2022/05/18 01:09:02;;;;;;;;;;;18.80;99.90;;;;;;4988245;28;19921;-82
2022/05/18 01:11:28;;;;;;;;;;;18.80;99.90;;;;;;4987651;28;19906;-82
2022/05/18 01:13:53;;;;;;;;;;;18.80;99.90;;;;;;4987155;28;20164;-82
2022/05/18 01:16:19;;;;;;;;;;;18.80;99.90;;;;;;4987402;28;19946;-82
2022/05/18 01:18:45;;;;;;;;;;;18.80;99.90;;;;;;4987056;28;19910;-83
2022/05/18 01:21:10;;;;;;;;;;;18.80;99.90;;;;;;4986298;28;20190;-82
2022/05/18 01:23:38;;;;;;;;;;;18.80;99.90;;;;;;4986555;28;19906;-83
2022/05/18 01:26:23;;;;;;;;;;;18.80;99.90;;;;;;4987278;28;19919;-82
2022/05/18 01:28:50;;;;;;;;;;;18.80;99.90;;;;;;4986934;28;19907;-82
2022/05/18 01:31:16;;;;;;;;;;;18.80;99.90;;;;;;4986048;28;19906;-83
2022/05/18 01:33:41;;;;;;;;;;;18.80;99.90;;;;;;4986872;28;19945;-82
2022/05/18 01:36:07;;;;;;;;;;;18.80;99.90;;;;;;4987442;28;19914;-82
2022/05/18 01:38:33;;;;;;;;;;;18.80;99.90;;;;;;4987685;28;19998;-82
2022/05/18 01:41:03;;;;;;;;;;;18.80;99.90;;;;;;4987475;28;20217;-82
2022/05/18 01:43:31;;;;;;;;;;;18.80;99.90;;;;;;4987366;28;19918;-81
2022/05/18 01:45:58;;;;;;;;;;;18.70;99.90;;;;;;4987308;28;20262;-82
2022/05/18 01:48:26;;;;;;;;;;;18.70;99.90;;;;;;4986491;28;19993;-82
2022/05/18 01:50:52;;;;;;;;;;;18.70;99.90;;;;;;4986613;28;19913;-81
2022/05/18 01:53:18;;;;;;;;;;;18.70;99.90;;;;;;4986795;28;20113;-82
2022/05/18 01:55:44;;;;;;;;;;;18.70;99.90;;;;;;4986503;28;19914;-83
2022/05/18 01:58:10;;;;;;;;;;;18.60;99.90;;;;;;4987124;28;20233;-83
2022/05/18 02:00:36;;;;;;;;;;;18.60;99.90;;;;;;4986939;28;20029;-82
2022/05/18 02:03:02;;;;;;;;;;;18.50;99.90;;;;;;4986994;28;20190;-82
2022/05/18 02:05:28;;;;;;;;;;;18.50;99.90;;;;;;4986827;28;19972;-82
2022/05/18 02:07:55;;;;;;;;;;;18.50;99.90;;;;;;4968800;28;20221;-81
2022/05/18 02:10:20;;;;;;;;;;;18.40;99.90;;;;;;4986472;28;19969;-82
2022/05/18 02:12:46;;;;;;;;;;;18.40;99.90;;;;;;4986476;28;20194;-83
2022/05/18 02:15:11;;;;;;;;;;;18.50;99.90;;;;;;4986970;28;20033;-83
2022/05/18 02:17:38;;;;;;;;;;;18.40;99.90;;;;;;4986443;28;19945;-82
2022/05/18 02:20:05;;;;;;;;;;;18.40;99.90;;;;;;4985700;28;19913;-82
2022/05/18 02:22:30;;;;;;;;;;;18.40;99.90;;;;;;4986291;28;19969;-82
2022/05/18 02:24:56;;;;;;;;;;;18.40;99.90;;;;;;4986446;28;19946;-82
2022/05/18 02:27:22;;;;;;;;;;;18.30;99.90;;;;;;4986435;28;19950;-82
2022/05/18 02:29:47;;;;;;;;;;;18.20;99.90;;;;;;4986598;28;19945;-82
2022/05/18 02:32:13;;;;;;;;;;;18.20;99.90;;;;;;4985938;28;19961;-82
2022/05/18 02:34:38;;;;;;;;;;;18.20;99.90;;;;;;4986219;28;19922;-82
2022/05/18 02:37:04;;;;;;;;;;;18.10;99.90;;;;;;4986184;28;19906;-82
2022/05/18 02:39:30;;;;;;;;;;;18.10;99.90;;;;;;4984870;28;19981;-82
2022/05/18 02:41:55;;;;;;;;;;;18.10;99.90;;;;;;4985993;28;19906;-82
2022/05/18 02:44:21;;;;;;;;;;;18.00;99.90;;;;;;4985272;28;19941;-82
2022/05/18 02:46:47;;;;;;;;;;;18.00;99.90;;;;;;4986199;28;19941;-82
2022/05/18 02:49:13;;;;;;;;;;;18.00;99.90;;;;;;4986259;28;19913;-82
2022/05/18 02:51:39;;;;;;;;;;;18.00;99.90;;;;;;4985134;28;19913;-82
2022/05/18 02:56:05;;;;;;;;;;;17.90;99.90;;;;;;4986239;28;19956;-82
2022/05/18 02:56:52;;;;;;;;;;;17.90;99.90;;;;;;4985325;28;19914;-82
2022/05/18 02:59:19;;;;;;;;;;;17.90;99.90;;;;;;4985340;28;20079;-82
2022/05/18 03:01:45;;;;;;;;;;;17.80;99.90;;;;;;4985822;28;20137;-82
2022/05/18 03:04:10;;;;;;;;;;;17.80;99.90;;;;;;4985811;28;19906;-82
2022/05/18 03:06:36;;;;;;;;;;;17.80;99.90;;;;;;4985834;28;19914;-82
2022/05/18 03:09:01;;;;;;;;;;;17.80;99.90;;;;;;4984730;28;19913;-83
2022/05/18 03:11:27;;;;;;;;;;;17.80;99.90;;;;;;4985393;28;20097;-82
2022/05/18 03:13:52;;;;;;;;;;;17.80;99.90;;;;;;4985779;28;19929;-82
2022/05/18 03:16:18;;;;;;;;;;;17.70;99.90;;;;;;4985031;28;20165;-83
2022/05/18 03:18:44;;;;;;;;;;;17.70;99.90;;;;;;4985024;28;19906;-82
2022/05/18 03:23:54;;;;;;;;;;;17.70;99.90;;;;;;4984250;28;20213;-83
2022/05/18 03:26:21;;;;;;;;;;;17.70;99.90;;;;;;4984528;28;19907;-82
2022/05/18 03:28:48;;;;;;;;;;;17.70;99.90;;;;;;4985270;28;19906;-83
2022/05/18 03:31:14;;;;;;;;;;;17.70;99.90;;;;;;4984843;28;19907;-83
2022/05/18 03:33:40;;;;;;;;;;;17.70;99.90;;;;;;4984580;28;20182;-83
2022/05/18 03:36:08;;;;;;;;;;;17.60;99.90;;;;;;4985119;28;19914;-83
2022/05/18 03:38:34;;;;;;;;;;;17.60;99.90;;;;;;4984908;28;19906;-83
2022/05/18 03:40:59;;;;;;;;;;;17.60;99.90;;;;;;4984277;28;19945;-82
2022/05/18 03:43:25;;;;;;;;;;;17.60;99.90;;;;;;4985235;28;19981;-82
2022/05/18 03:45:51;;;;;;;;;;;17.60;99.90;;;;;;4985571;28;19940;-82
2022/05/18 03:48:17;;;;;;;;;;;17.60;99.90;;;;;;4987220;28;19907;-83
2022/05/18 03:50:45;;;;;;;;;;;17.60;99.90;;;;;;4988951;28;19906;-83
2022/05/18 03:53:10;;;;;;;;;;;17.60;99.90;;;;;;4988557;28;19976;-82
2022/05/18 03:55:38;;;;;;;;;;;17.50;99.90;;;;;;4989800;28;19914;-82
2022/05/18 03:58:04;;;;;;;;;;;17.50;99.90;;;;;;4989272;28;19906;-82
2022/05/18 04:00:30;;;;;;;;;;;17.50;99.90;;;;;;4989077;28;20210;-82
2022/05/18 04:02:56;;;;;;;;;;;17.60;99.90;;;;;;4988685;28;19910;-82
2022/05/18 04:05:22;;;;;;;;;;;17.50;99.90;;;;;;4988550;28;20090;-83
2022/05/18 04:07:48;;;;;;;;;;;17.50;99.90;;;;;;4988744;28;19906;-82
2022/05/18 04:10:14;;;;;;;;;;;17.50;99.90;;;;;;4988201;28;19906;-82
2022/05/18 04:12:40;;;;;;;;;;;17.50;99.90;;;;;;4989063;28;19906;-83
2022/05/18 04:15:06;;;;;;;;;;;17.40;99.90;;;;;;4987923;28;20113;-82
2022/05/18 04:17:32;;;;;;;;;;;17.50;99.90;;;;;;4988587;28;19977;-82
2022/05/18 04:19:57;;;;;;;;;;;17.40;99.90;;;;;;4988056;28;19906;-82
2022/05/18 04:22:25;;;;;;;;;;;17.40;99.90;;;;;;4988060;28;19961;-82
2022/05/18 04:24:51;;;;;;;;;;;17.40;99.90;;;;;;4987609;28;19906;-82
2022/05/18 04:27:17;;;;;;;;;;;17.40;99.90;;;;;;4988474;28;19907;-82
2022/05/18 04:29:43;;;;;;;;;;;17.40;99.90;;;;;;4987213;28;19912;-82
2022/05/18 04:32:09;;;;;;;;;;;17.30;99.90;;;;;;4987372;28;20074;-83
2022/05/18 04:34:34;;;;;;;;;;;17.30;99.90;;;;;;4988414;28;19906;-83
2022/05/18 04:37:00;;;;;;;;;;;17.30;99.90;;;;;;4988401;28;19929;-82
2022/05/18 04:39:26;;;;;;;;;;;17.30;99.90;;;;;;4988740;28;19906;-82
2022/05/18 04:41:51;;;;;;;;;;;17.30;99.90;;;;;;4988035;28;19945;-83
2022/05/18 04:44:17;;;;;;;;;;;17.20;99.90;;;;;;4987754;28;20198;-82
2022/05/18 04:46:43;;;;;;;;;;;17.20;99.90;;;;;;4988592;28;19944;-83
2022/05/18 04:49:11;;;;;;;;;;;17.20;99.90;;;;;;4987144;28;20190;-83
2022/05/18 04:51:37;;;;;;;;;;;17.20;99.90;;;;;;4988141;28;20201;-82
2022/05/18 04:54:03;;;;;;;;;;;17.20;99.90;;;;;;4987776;28;19977;-82
2022/05/18 04:56:28;;;;;;;;;;;17.30;99.90;;;;;;4987141;28;19914;-83
2022/05/18 04:58:54;;;;;;;;;;;17.30;99.90;;;;;;4987932;28;19906;-83
2022/05/18 05:01:19;;;;;;;;;;;17.30;99.90;;;;;;4987804;28;19906;-82
2022/05/18 05:03:45;;;;;;;;;;;17.40;99.90;;;;;;4988362;28;19981;-83
2022/05/18 05:06:10;;;;;;;;;;;17.40;99.90;;;;;;4987352;28;19906;-82
2022/05/18 05:08:37;;;;;;;;;;;17.40;99.90;;;;;;4987874;28;20021;-83
2022/05/18 05:11:04;;;;;;;;;;;17.50;99.90;;;;;;4987663;28;19906;-83
2022/05/18 05:13:29;;;;;;;;;;;17.50;99.90;;;;;;4987629;28;19970;-83
2022/05/18 05:16:13;;;;;;;;;;;17.50;99.90;;;;;;4987300;28;20106;-83
2022/05/18 05:18:38;;;;;;;;;;;17.60;99.90;;;;;;4987637;28;19907;-82
2022/05/18 05:21:05;;;;;;;;;;;17.60;99.90;;;;;;4986700;28;20209;-83
2022/05/18 05:23:32;;;;;;;;;;;17.60;99.90;;;;;;4987851;28;19913;-82
2022/05/18 05:25:58;;;;;;;;;;;17.70;99.90;;;;;;4970119;28;20098;-86
2022/05/18 05:28:24;;;;;;;;;;;17.80;99.90;;;;;;4987933;28;19972;-84
2022/05/18 05:30:49;;;;;;;;;;;17.80;99.90;;;;;;4987061;28;20193;-85
2022/05/18 05:33:15;;;;;;;;;;;17.90;99.90;;;;;;4987278;28;19906;-84
2022/05/18 05:35:41;;;;;;;;;;;17.90;99.90;;;;;;4980902;28;19918;-84
2022/05/18 05:38:07;;;;;;;;;;;17.90;99.90;;;;;;4978181;28;20374;-84
2022/05/18 05:40:32;;;;;;;;;;;18.00;99.90;;;;;;4980545;28;20278;-84
2022/05/18 05:42:58;;;;;;;;;;;18.10;99.90;;;;;;4976696;28;19916;-84
2022/05/18 05:45:24;;;;;;;;;;;18.00;99.90;;;;;;4976673;28;19946;-84
2022/05/18 05:47:49;;;;;;;;;;;18.10;99.90;;;;;;4976581;28;19997;-84
2022/05/18 05:50:15;;;;;;;;;;;18.10;99.90;;;;;;4977517;28;20295;-84
2022/05/18 05:52:41;;;;;;;;;;;18.20;99.90;;;;;;4979230;28;19965;-84
2022/05/18 05:55:07;;;;;;;;;;;18.20;99.90;;;;;;4980001;28;19913;-84
2022/05/18 05:57:32;;;;;;;;;;;18.20;99.90;;;;;;4979796;28;19961;-84
2022/05/18 06:00:00;;;;;;;;;;;18.20;99.90;;;;;;4976722;28;19910;-84
2022/05/18 06:02:26;;;;;;;;;;;18.20;99.90;;;;;;4976639;28;19957;-83
2022/05/18 06:04:52;;;;;;;;;;;18.20;99.90;;;;;;4976371;28;19910;-84
2022/05/18 06:07:17;;;;;;;;;;;18.30;99.90;;;;;;4976499;28;20001;-84
2022/05/18 06:09:43;;;;;;;;;;;18.30;99.90;;;;;;4976236;28;20515;-84
2022/05/18 06:12:09;;;;;;;;;;;18.20;99.90;;;;;;4976012;28;19911;-84
2022/05/18 06:14:34;;;;;;;;;;;18.20;99.90;;;;;;4976390;28;19997;-84
2022/05/18 06:17:00;;;;;;;;;;;18.20;99.90;;;;;;4976194;28;19941;-84
2022/05/18 06:19:25;;;;;;;;;;;18.20;99.90;;;;;;4976147;28;19910;-84
2022/05/18 06:21:51;;;;;;;;;;;18.20;99.90;;;;;;4976115;28;20384;-84
2022/05/18 06:24:18;;;;;;;;;;;18.20;99.90;;;;;;4976046;28;19965;-84
2022/05/18 06:26:44;;;;;;;;;;;18.30;99.90;;;;;;4976298;28;19960;-84
2022/05/18 06:29:09;;;;;;;;;;;18.40;99.90;;;;;;4976084;28;19910;-84
2022/05/18 06:31:35;;;;;;;;;;;18.40;99.90;;;;;;4976064;28;20370;-84
2022/05/18 06:34:00;;;;;;;;;;;18.50;99.90;;;;;;4975936;28;19911;-84
2022/05/18 06:36:26;;;;;;;;;;;18.50;99.90;;;;;;4975860;28;20029;-84
2022/05/18 06:38:51;;;;;;;;;;;18.60;99.90;;;;;;4975841;28;19910;-84
2022/05/18 06:41:23;;;;;;;;;;;18.70;99.90;;;;;;4975956;28;19910;-84
2022/05/18 06:43:53;;;;;;;;;;;18.90;99.90;;;;;;4975362;28;19922;-84
2022/05/18 06:46:18;;;;;;;;;;;19.00;99.90;;;;;;4975496;28;19964;-84
2022/05/18 06:48:44;;;;;;;;;;;19.10;99.90;;;;;;4958147;28;19993;-84
2022/05/18 06:51:10;;;;;;;;;;;19.10;99.90;;;;;;4975726;28;19910;-84
2022/05/18 06:53:36;;;;;;;;;;;19.10;99.90;;;;;;4976183;28;19917;-84
2022/05/18 06:56:01;;;;;;;;;;;19.20;99.90;;;;;;4975550;28;19977;-84
2022/05/18 06:58:27;;;;;;;;;;;19.30;99.90;;;;;;4975475;28;19910;-84
2022/05/18 07:00:52;;;;;;;;;;;19.40;99.90;;;;;;4975281;28;19910;-84
2022/05/18 07:03:18;;;;;;;;;;;19.60;99.90;;;;;;4975161;28;19917;-84
2022/05/18 07:05:44;;;;;;;;;;;19.90;99.90;;;;;;4975359;28;19910;-84
2022/05/18 07:08:09;;;;;;;;;;;20.10;99.90;;;;;;4975877;28;19968;-84
2022/05/18 07:10:35;;;;;;;;;;;20.30;99.90;;;;;;4975515;28;19917;-84
2022/05/18 07:13:01;;;;;;;;;;;20.40;99.90;;;;;;4975541;28;20325;-84
2022/05/18 07:15:26;;;;;;;;;;;20.50;99.90;;;;;;4975243;28;19953;-84
2022/05/18 07:17:52;;;;;;;;;;;20.50;99.90;;;;;;4975191;28;19917;-84
2022/05/18 07:20:18;;;;;;;;;;;20.60;99.90;;;;;;4975102;28;19992;-84
2022/05/18 07:22:43;;;;;;;;;;;20.70;99.90;;;;;;4974276;28;20429;-84
2022/05/18 07:25:09;;;;;;;;;;;20.80;99.90;;;;;;4975140;28;19946;-83
2022/05/18 07:27:34;;;;;;;;;;;21.00;99.90;;;;;;4975067;28;19949;-84
2022/05/18 07:30:02;;;;;;;;;;;21.10;99.90;;;;;;4975096;28;19925;-85
2022/05/18 07:32:28;;;;;;;;;;;21.30;99.90;;;;;;4975079;28;19910;-84
2022/05/18 07:34:54;;;;;;;;;;;21.30;99.90;;;;;;4975121;28;20374;-84
2022/05/18 07:37:19;;;;;;;;;;;21.30;99.90;;;;;;4975074;28;19910;-84
2022/05/18 07:39:45;;;;;;;;;;;21.40;99.90;;;;;;4975071;28;19910;-85
2022/05/18 07:42:10;;;;;;;;;;;21.50;99.90;;;;;;4974511;28;19910;-84
2022/05/18 07:44:37;;;;;;;;;;;21.60;99.90;;;;;;4974562;28;19930;-85
2022/05/18 07:47:03;;;;;;;;;;;21.60;99.90;;;;;;4973802;28;20266;-84
2022/05/18 07:49:33;;;;;;;;;;;21.70;99.90;;;;;;4975023;28;20005;-85
2022/05/18 07:51:58;;;;;;;;;;;21.80;99.90;;;;;;4974950;28;19910;-84
2022/05/18 07:54:24;;;;;;;;;;;22.00;99.90;;;;;;4975032;28;19914;-84
2022/05/18 07:56:49;;;;;;;;;;;22.00;99.90;;;;;;4975095;28;19910;-84
2022/05/18 07:59:15;;;;;;;;;;;22.20;99.90;;;;;;4975365;28;19910;-84
2022/05/18 08:01:41;;;;;;;;;;;22.50;99.90;;;;;;4974794;28;19917;-85
2022/05/18 08:04:06;;;;;;;;;;;22.80;99.90;;;;;;4974795;28;19954;-84
2022/05/18 08:06:33;;;;;;;;;;;22.80;99.90;;;;;;4974553;28;20290;-84
2022/05/18 08:08:59;;;;;;;;;;;23.00;99.90;;;;;;4974574;28;20001;-84
2022/05/18 08:16:53;;;;;;;;;;;23.10;99.90;;;;;;4974693;28;20063;-84
2022/05/18 08:19:19;;;;;;;;;;;23.20;99.90;;;;;;4974646;28;20366;-84
2022/05/18 08:21:47;;;;;;;;;;;23.40;99.90;;;;;;4974708;28;19953;-84
2022/05/18 08:24:12;;;;;;;;;;;23.60;99.90;;;;;;4974506;28;19917;-84
2022/05/18 08:26:39;;;;;;;;;;;23.80;99.90;;;;;;4974533;28;20000;-84
2022/05/18 08:29:05;;;;;;;;;;;23.80;99.90;;;;;;4974519;28;20372;-84
2022/05/18 08:31:30;;;;;;;;;;;23.90;99.90;;;;;;4974469;28;19956;-84
2022/05/18 08:33:56;;;;;;;;;;;23.90;99.90;;;;;;4975866;28;19917;-85
2022/05/18 08:36:24;;;;;;;;;;;24.00;99.90;;;;;;4978081;28;20085;-84
2022/05/18 08:38:49;;;;;;;;;;;24.10;99.90;;;;;;4978195;28;19918;-84
2022/05/18 08:41:20;;;;;;;;;;;24.10;99.90;;;;;;4978009;28;19910;-84
2022/05/18 08:43:48;;;;;;;;;;;24.20;99.90;;;;;;4977793;28;19929;-85
2022/05/18 08:46:27;;;;;;;;;;;24.20;99.90;;;;;;4977932;28;19933;-84
2022/05/18 08:48:59;;;;;;;;;;;24.00;99.90;;;;;;4977943;28;20363;-84
2022/05/18 08:51:38;;;;;;;;;;;24.00;99.90;;;;;;4977907;28;20009;-84
2022/05/18 08:54:22;;;;;;;;;;;24.00;99.90;;;;;;4977941;28;20390;-84
2022/05/18 08:56:49;;;;;;;;;;;24.10;99.90;;;;;;4977709;28;19929;-84
2022/05/18 08:59:18;;;;;;;;;;;24.20;99.90;;;;;;4977800;28;19953;-84
2022/05/18 09:01:46;;;;;;;;;;;24.30;99.90;;;;;;4977633;28;19937;-84
2022/05/18 09:04:15;;;;;;;;;;;24.40;99.90;;;;;;4960173;28;19926;-84
2022/05/18 09:06:59;;;;;;;;;;;24.40;99.90;;;;;;4977276;28;20013;-84
2022/05/18 09:12:12;;;;;;;;;;;24.70;99.90;;;;;;4977728;28;19917;-84
2022/05/18 09:14:39;;;;;;;;;;;24.80;99.90;;;;;;4977386;28;19910;-85
2022/05/18 09:17:17;;;;;;;;;;;24.90;99.90;;;;;;4977519;28;20008;-84
2022/05/18 09:19:42;;;;;;;;;;;24.90;99.90;;;;;;4977377;28;19956;-84
2022/05/18 09:22:09;;;;;;;;;;;25.10;99.90;;;;;;4977556;28;19911;-84
2022/05/18 09:24:50;;;;;;;;;;;25.20;99.90;;;;;;4977220;28;19910;-85
2022/05/18 09:27:16;;;;;;;;;;;25.40;99.90;;;;;;4976996;28;20009;-85
2022/05/18 09:29:55;;;;;;;;;;;25.50;99.90;;;;;;4977102;28;19945;-85
2022/05/18 09:32:26;;;;;;;;;;;25.60;99.90;;;;;;4977014;28;19910;-85
2022/05/18 09:35:12;;;;;;;;;;;25.70;99.90;;;;;;4975711;28;19918;-84
2022/05/18 09:37:39;;;;;;;;;;;25.80;99.90;;;;;;4976928;28;19910;-85
2022/05/18 09:40:23;;;;;;;;;;;25.90;99.90;;;;;;4977039;28;20001;-85
2022/05/18 09:42:58;;;;;;;;;;;26.10;99.70;;;;;;4976575;28;20425;-84
2022/05/18 09:45:26;;;;;;;;;;;26.20;99.30;;;;;;4975589;28;19957;-85
2022/05/18 09:47:55;;;;;;;;;;;26.50;99.30;;;;;;4976637;28;19910;-85
2022/05/18 09:50:21;;;;;;;;;;;26.70;98.70;;;;;;4976914;28;19916;-84
2022/05/18 09:52:47;;;;;;;;;;;26.80;98.70;;;;;;4976886;28;19961;-85
2022/05/18 09:55:15;;;;;;;;;;;26.90;98.60;;;;;;4976682;28;19918;-85
2022/05/18 09:58:04;;;;;;;;;;;27.00;98.00;;;;;;4976729;28;19910;-84
2022/05/18 10:00:32;;;;;;;;;;;27.00;98.20;;;;;;4971000;28;20373;-85
2022/05/18 10:08:57;;;;;;;;;;;26.70;98.30;;;;;;4975931;28;19932;-85
2022/05/18 10:11:26;;;;;;;;;;;26.50;98.30;;;;;;4976312;28;20441;-85
2022/05/18 10:14:00;;;;;;;;;;;26.50;98.10;;;;;;4976551;28;20022;-84
2022/05/18 10:16:33;;;;;;;;;;;26.60;98.10;;;;;;4976771;28;19918;-84
2022/05/18 10:18:59;;;;;;;;;;;26.70;98.20;;;;;;4976564;28;20255;-84
2022/05/18 10:21:38;;;;;;;;;;;26.80;97.80;;;;;;4976224;28;19920;-83
2022/05/18 10:24:24;;;;;;;;;;;27.00;97.60;;;;;;4976023;28;19917;-84
2022/05/18 10:27:05;;;;;;;;;;;27.20;97.60;;;;;;4974987;28;19910;-84
2022/05/18 10:29:31;;;;;;;;;;;27.40;97.50;;;;;;4975824;28;19910;-84
2022/05/18 10:32:06;;;;;;;;;;;27.70;97.40;;;;;;4976409;28;20004;-84
2022/05/18 10:34:33;;;;;;;;;;;27.90;96.80;;;;;;4975850;28;19918;-83
2022/05/18 10:37:00;;;;;;;;;;;28.10;96.40;;;;;;4975907;28;20023;-84
2022/05/18 10:39:36;;;;;;;;;;;27.90;96.30;;;;;;4976707;28;19914;-83
2022/05/18 10:42:19;;;;;;;;;;;27.80;96.30;;;;;;4976209;28;20001;-83
2022/05/18 10:44:45;;;;;;;;;;;27.70;96.50;;;;;;4975384;28;19977;-83
2022/05/18 10:47:29;;;;;;;;;;;27.70;95.80;;;;;;4975692;28;19911;-83
2022/05/18 10:50:10;;;;;;;;;;;27.80;96.00;;;;;;4975547;28;19960;-83
2022/05/18 10:52:36;;;;;;;;;;;28.00;95.40;;;;;;4975756;28;19910;-83
2022/05/18 10:55:06;;;;;;;;;;;28.10;95.60;;;;;;4975496;28;20267;-83
2022/05/18 10:57:39;;;;;;;;;;;28.10;95.70;;;;;;4976156;28;19964;-83
2022/05/18 11:00:18;;;;;;;;;;;28.20;95.50;;;;;;4975445;28;19917;-83
2022/05/18 11:03:02;;;;;;;;;;;28.40;95.10;;;;;;4975408;28;19910;-83
2022/05/18 11:05:30;;;;;;;;;;;28.40;94.80;;;;;;4975325;28;20004;-83
2022/05/18 11:07:56;;;;;;;;;;;28.70;94.60;;;;;;4975305;28;19910;-82
2022/05/18 11:10:23;;;;;;;;;;;28.90;94.20;;;;;;4976539;28;19964;-82
2022/05/18 11:13:04;;;;;;;;;;;29.00;94.50;;;;;;4975250;28;19910;-83
2022/05/18 11:15:34;;;;;;;;;;;29.40;94.00;;;;;;4975375;28;19969;-82
2022/05/18 11:18:20;;;;;;;;;;;29.60;93.20;;;;;;4975434;28;20355;-83
2022/05/18 11:20:46;;;;;;;;;;;29.60;92.90;;;;;;4954614;28;19910;-83
2022/05/18 11:23:14;;;;;;;;;;;29.60;92.80;;;;;;4975058;28;19910;-83
2022/05/18 11:25:58;;;;;;;;;;;29.70;92.80;;;;;;4975497;28;19910;-83
2022/05/18 11:28:42;;;;;;;;;;;30.00;92.80;;;;;;4973782;28;19933;-83
2022/05/18 11:31:21;;;;;;;;;;;30.40;92.60;;;;;;4975159;28;20381;-83
2022/05/18 11:33:49;;;;;;;;;;;30.60;91.90;;;;;;4975279;28;20008;-83
2022/05/18 11:36:24;;;;;;;;;;;30.70;92.00;;;;;;4975017;28;19918;-83
2022/05/18 11:38:52;;;;;;;;;;;30.70;92.00;;;;;;4974901;28;20388;-83
2022/05/18 11:41:28;;;;;;;;;;;30.60;91.90;;;;;;4975082;28;19996;-83
2022/05/18 11:43:58;;;;;;;;;;;30.80;91.80;;;;;;4974573;28;19930;-83
2022/05/18 11:46:27;;;;;;;;;;;31.10;91.60;;;;;;4974878;28;19917;-83
2022/05/18 11:48:53;;;;;;;;;;;31.20;91.60;;;;;;4974771;28;19910;-83
2022/05/18 11:51:31;;;;;;;;;;;31.20;91.10;;;;;;4974983;28;19964;-82
2022/05/18 11:54:02;;;;;;;;;;;31.10;91.00;;;;;;4974863;28;19962;-83
2022/05/18 11:56:47;;;;;;;;;;;30.90;90.90;;;;;;4974962;28;20344;-83
2022/05/18 12:02:13;;;;;;;;;;;30.50;91.30;;;;;;4968894;28;20290;-83
2022/05/18 12:04:57;;;;;;;;;;;30.40;91.30;;;;;;4974568;28;20358;-82
2022/05/18 12:07:29;;;;;;;;;;;30.50;91.20;;;;;;4974646;28;19917;-82
2022/05/18 12:10:01;;;;;;;;;;;30.70;91.20;;;;;;4976317;28;20382;-83
2022/05/18 12:12:44;;;;;;;;;;;31.00;90.40;;;;;;4978613;28;19994;-82
2022/05/18 12:15:23;;;;;;;;;;;31.20;90.90;;;;;;4978460;28;19918;-83
2022/05/18 12:17:48;;;;;;;;;;;31.50;90.20;;;;;;4978745;28;20370;-83
2022/05/18 12:20:16;;;;;;;;;;;31.70;88.60;;;;;;4978623;28;19917;-83
2022/05/18 12:22:45;;;;;;;;;;;32.00;89.80;;;;;;4976951;28;19917;-83
2022/05/18 12:25:12;;;;;;;;;;;32.40;88.90;;;;;;4960655;28;19910;-82
2022/05/18 12:27:39;;;;;;;;;;;32.70;87.80;;;;;;4978105;28;19910;-83
2022/05/18 12:30:06;;;;;;;;;;;33.00;86.90;;;;;;4976902;28;19910;-83
2022/05/18 12:32:32;;;;;;;;;;;32.90;85.90;;;;;;4978068;28;19917;-82
2022/05/18 12:35:10;;;;;;;;;;;32.60;85.60;;;;;;4978016;28;19924;-83
2022/05/18 12:37:55;;;;;;;;;;;32.20;86.00;;;;;;4978253;28;19910;-83
2022/05/18 12:40:32;;;;;;;;;;;31.80;87.30;;;;;;4978390;28;19910;-81
2022/05/18 12:43:03;;;;;;;;;;;31.60;86.40;;;;;;4977834;28;19910;-83
2022/05/18 12:45:31;;;;;;;;;;;31.50;87.70;;;;;;4977869;28;19917;-82
2022/05/18 12:48:10;;;;;;;;;;;31.50;88.30;;;;;;4977895;28;19910;-83
2022/05/18 12:50:39;;;;;;;;;;;31.50;88.20;;;;;;4977707;28;19910;-83
2022/05/18 12:53:13;;;;;;;;;;;31.80;88.20;;;;;;4977915;28;19917;-83
2022/05/18 12:55:41;;;;;;;;;;;32.00;87.40;;;;;;4977890;28;19922;-83
2022/05/18 12:58:09;;;;;;;;;;;32.10;88.40;;;;;;4977856;28;19963;-83
2022/05/18 13:00:41;;;;;;;;;;;32.30;85.30;;;;;;4977852;28;19910;-83
2022/05/18 13:03:09;;;;;;;;;;;32.60;86.80;;;;;;4977525;28;20017;-83
2022/05/18 13:05:45;;;;;;;;;;;32.80;86.40;;;;;;4977465;28;19910;-83
2022/05/18 13:08:35;;;;;;;;;;;32.90;86.50;;;;;;4977341;28;19910;-83
2022/05/18 13:11:27;;;;;;;;;;;32.80;86.50;;;;;;4977381;28;20274;-83
2022/05/18 13:13:56;;;;;;;;;;;32.70;83.90;;;;;;4977467;28;19910;-83
2022/05/18 13:16:36;;;;;;;;;;;32.20;84.50;;;;;;4977357;28;19949;-83
2022/05/18 13:19:03;;;;;;;;;;;32.10;84.90;;;;;;4976066;28;20271;-83
2022/05/18 13:21:29;;;;;;;;;;;32.40;85.30;;;;;;4976217;28;19914;-83
2022/05/18 13:24:02;;;;;;;;;;;32.50;84.30;;;;;;4977218;28;19972;-83
2022/05/18 13:26:33;;;;;;;;;;;32.80;83.70;;;;;;4959634;28;20259;-83
2022/05/18 13:29:03;;;;;;;;;;;33.50;82.70;;;;;;4976932;28;20014;-83
2022/05/18 13:31:29;;;;;;;;;;;34.30;81.70;;;;;;4959693;28;20434;-83
2022/05/18 13:33:58;;;;;;;;;;;35.10;81.30;;;;;;4977016;28;19989;-83
2022/05/18 13:36:38;;;;;;;;;;;36.30;80.60;;;;;;4977176;28;20349;-83
2022/05/18 13:39:07;;;;;;;;;;;36.40;79.10;;;;;;4977065;28;19933;-83
2022/05/18 13:41:33;;;;;;;;;;;36.90;79.50;;;;;;4977121;28;19910;-83
2022/05/18 13:44:01;;;;;;;;;;;37.00;77.50;;;;;;4976756;28;19929;-83
2022/05/18 13:46:28;;;;;;;;;;;37.00;77.40;;;;;;4976781;28;19936;-84
2022/05/18 13:48:58;;;;;;;;;;;36.90;75.00;;;;;;4976777;28;19910;-83
2022/05/18 13:51:28;;;;;;;;;;;37.80;74.80;;;;;;4977116;28;19910;-83
2022/05/18 13:54:03;;;;;;;;;;;37.40;73.40;;;;;;4975408;28;20001;-83
2022/05/18 13:56:34;;;;;;;;;;;38.10;73.90;;;;;;4976782;28;20017;-83
2022/05/18 13:59:10;;;;;;;;;;;39.60;72.20;;;;;;4976707;28;19917;-83
2022/05/18 14:01:45;;;;;;;;;;;40.40;69.40;;;;;;4976724;28;19914;-83
2022/05/18 14:04:21;;;;;;;;;;;39.90;68.70;;;;;;4976544;28;19914;-83
2022/05/18 14:06:56;;;;;;;;;;;38.80;69.00;;;;;;4976494;28;19914;-83
2022/05/18 14:09:22;;;;;;;;;;;39.00;68.90;;;;;;4974955;28;19917;-83
2022/05/18 14:11:47;;;;;;;;;;;40.20;68.30;;;;;;4976259;28;19914;-83
2022/05/18 14:14:14;;;;;;;;;;;40.50;67.40;;;;;;4976443;28;19965;-83
2022/05/18 14:16:48;;;;;;;;;;;39.80;66.90;;;;;;4976433;28;19925;-83
2022/05/18 14:19:20;;;;;;;;;;;40.00;67.40;;;;;;4976489;28;20009;-83
2022/05/18 14:21:47;;;;;;;;;;;41.10;66.70;;;;;;4976370;28;19925;-83
2022/05/18 14:24:17;;;;;;;;;;;41.60;65.80;;;;;;4976228;28;19910;-83
2022/05/18 14:26:58;;;;;;;;;;;41.60;65.10;;;;;;4976180;28;19910;-83
2022/05/18 14:29:31;;;;;;;;;;;42.30;65.50;;;;;;4976133;28;20267;-83
2022/05/18 14:31:59;;;;;;;;;;;44.40;65.10;;;;;;4975842;28;20008;-84
2022/05/18 14:34:34;;;;;;;;;;;47.40;63.30;;;;;;4976031;28;20055;-84
2022/05/18 14:37:02;;;;;;;;;;;47.70;59.60;;;;;;4975742;28;19919;-83
2022/05/18 14:39:33;;;;;;;;;;;48.80;59.00;;;;;;4976115;28;19917;-83
2022/05/18 14:42:00;;;;;;;;;;;46.10;58.40;;;;;;4976063;28;20297;-83
2022/05/18 14:44:26;;;;;;;;;;;44.90;58.50;;;;;;4975728;28;19922;-83